Pierre, SD

7:06 AM CST on February 28, 2015 (GMT -0600)
2 miles north of airport | Change Station
CLOSE
Current Station
Personal Weather Station
Location: Pierre, SD
Elevation: 1818 ft
Nearby Weather Stations

Elev 1818 ft 44.41 °N, 100.30 °W | Updated 58 seconds ago

Clear
Clear
8.9 °F
Feels Like 9 °F
N
0.0
Wind Variable Wind from SE
Gusts 7.0 mph

Today
High -- | Low -- °F
--% Chance of Precip.
Yesterday
High -- | Low -- °F
Precip. -- in
7:20 AM 6:27 PM
Waxing Gibbous, 77% visible
Pressure 30.25 in
Visibility 10.0 miles
Clouds Clear
Windchill 9 °F
Dew Point 3 °F
Humidity 77%
Rainfall 0.00 in
Snow Depth Not available.
UV 0 out of 12
Pollen .30 out of 12
Air Quality Not available.
Flu Activity Not available.
METAR KPIR 281253Z AUTO 16007KT 10SM CLR M12/M16 A3015 RMK AO2 SLP243 T11221161

More Conditions Fewer Conditions

Pressure 30.25 in
Visibility 10.0 miles
Clouds Clear
Windchill 9 °F
Dew Point 3 °F
Humidity 77%
Rainfall 0.00 in
Snow Depth Not available.
UV 0 out of 12
Pollen .30 out of 12
Air Quality Not available.
Flu Activity Not available.
METAR KPIR 281253Z AUTO 16007KT 10SM CLR M12/M16 A3015 RMK AO2 SLP243 T11221161

More Conditions Fewer Conditions

10-Day Weather Forecast

Almanac

Astronomy

Feb. 28, 2015 Rise Set
Actual Time
Civil Twilight
Nautical Twilight
Astronomical Twilight
Moon
Length of Visible Light
Length of Day
Tomorrow will be .
, % of the Moon is Illuminated

Today's Extremes

State Highs State Lows

Community

WunderPhotos

Upload Photos

1,801,002 photos uploaded!

WunderBlogs® & News

Nearby

Air Quality

  Air Quality AQ Index Pollutant
Not available.

Snow Depth

Station Depth Elevation

Earthquake Activity

City Distance Mag. Time & Date
Minimum magnitude displayed is 2.5.

Coastal Water Temperatures

Place Temperature

Nearby Weather Stations